createdAt,value
2023-02-23T00:00:24.657Z,101248.66
2023-02-23T00:01:30.606Z,101248.03
2023-02-23T00:02:34.374Z,101252.91
2023-02-23T00:03:38.158Z,101256.13
2023-02-23T00:04:41.850Z,101254.34
2023-02-23T00:05:45.471Z,101257.91
2023-02-23T00:06:49.153Z,101261.31
2023-02-23T00:07:53.169Z,101262.09
2023-02-23T00:08:58.513Z,101271.00
2023-02-23T00:10:02.121Z,101251.75
2023-02-23T00:11:06.629Z,101248.03
2023-02-23T00:12:10.288Z,101272.63
2023-02-23T00:13:13.967Z,101276.19
2023-02-23T00:14:17.627Z,101268.44
2023-02-23T00:15:21.354Z,101269.13
2023-02-23T00:16:26.800Z,101275.91
2023-02-23T00:17:30.418Z,101264.91
2023-02-23T00:18:34.135Z,101271.72
2023-02-23T00:19:37.856Z,101269.47
2023-02-23T00:20:41.524Z,101273.97
2023-02-23T00:21:45.167Z,101279.16
2023-02-23T00:22:48.775Z,101281.59
2023-02-23T00:23:53.958Z,101285.66
2023-02-23T00:24:59.373Z,101277.72
2023-02-23T00:26:05.324Z,101279.34
2023-02-23T00:27:08.991Z,101277.09
2023-02-23T00:28:12.659Z,101279.81
2023-02-23T00:29:18.219Z,101280.78
2023-02-23T00:30:22.070Z,101276.41
2023-02-23T00:31:27.098Z,101276.91
2023-02-23T00:32:30.995Z,101274.66
2023-02-23T00:33:34.693Z,101284.19
2023-02-23T00:34:38.478Z,101284.69
2023-02-23T00:35:42.206Z,101288.22
2023-02-23T00:36:45.788Z,101281.59
2023-02-23T00:37:50.450Z,101283.06
2023-02-23T00:38:55.815Z,101283.53
2023-02-23T00:40:01.162Z,101290.50
2023-02-23T00:41:09.316Z,101290.66
2023-02-23T00:42:13.012Z,101293.59
2023-02-23T00:43:16.686Z,101288.41
2023-02-23T00:44:20.778Z,101293.47
2023-02-23T00:45:24.488Z,101296.81
2023-02-23T00:46:30.521Z,101295.41
2023-02-23T00:47:34.063Z,101292.66
2023-02-23T00:48:37.695Z,101300.72
2023-02-23T00:49:41.342Z,101295.41
2023-02-23T00:50:45.046Z,101302.34
2023-02-23T00:51:49.305Z,101299.59
2023-02-23T00:52:52.972Z,101295.22
2023-02-23T00:53:56.615Z,101304.28
2023-02-23T00:55:01.829Z,101306.06
2023-02-23T00:56:06.589Z,101302.66
2023-02-23T00:57:10.208Z,101308.00
2023-02-23T00:58:13.839Z,101308.94
2023-02-23T00:59:18.282Z,101315.28
2023-02-23T01:00:22.124Z,101309.94
2023-02-23T01:01:26.661Z,101307.34
2023-02-23T01:02:30.364Z,101314.94
2023-02-23T01:03:33.970Z,101311.03
2023-02-23T01:04:37.708Z,101316.72
2023-02-23T01:05:41.326Z,101321.09
2023-02-23T01:06:45.061Z,101318.84
2023-02-23T01:07:48.644Z,101333.91
2023-02-23T01:08:53.734Z,101332.44
2023-02-23T01:09:57.304Z,101325.31
2023-02-23T01:11:07.230Z,101325.47
2023-02-23T01:12:10.960Z,101331.47
2023-02-23T01:13:14.621Z,101327.22
2023-02-23T01:14:18.457Z,101326.41
2023-02-23T01:15:22.356Z,101330.47
2023-02-23T01:16:27.732Z,101333.41
2023-02-23T01:17:31.478Z,101329.50
2023-02-23T01:18:35.853Z,101322.38
2023-02-23T01:19:39.412Z,101338.88
2023-02-23T01:20:43.074Z,101341.63
2023-02-23T01:21:46.721Z,101346.66
2023-02-23T01:22:52.676Z,101347.16
2023-02-23T01:23:57.395Z,101352.00
2023-02-23T01:25:01.064Z,101356.03
2023-02-23T01:26:06.510Z,101353.28
2023-02-23T01:27:10.334Z,101349.38
2023-02-23T01:28:13.988Z,101350.69
2023-02-23T01:29:18.833Z,101356.34
2023-02-23T01:30:22.812Z,101358.63
2023-02-23T01:31:27.530Z,101352.78
2023-02-23T01:32:31.234Z,101355.69
2023-02-23T01:33:35.111Z,101348.69
2023-02-23T01:34:38.696Z,101352.47
2023-02-23T01:35:42.309Z,101360.38
2023-02-23T01:36:46.054Z,101359.91
2023-02-23T01:37:49.775Z,101359.25
2023-02-23T01:38:54.035Z,101354.88
2023-02-23T01:39:57.588Z,101362.19
2023-02-23T01:41:01.260Z,101356.81
2023-02-23T01:42:11.177Z,101347.72
2023-02-23T01:43:16.785Z,101346.91
2023-02-23T01:44:56.515Z,101363.94
2023-02-23T01:46:00.403Z,101368.81
2023-02-23T01:47:03.977Z,101366.53
2023-02-23T01:48:10.388Z,101361.97
2023-02-23T01:49:18.940Z,101369.25
2023-02-23T01:50:23.946Z,101368.94
2023-02-23T01:51:31.606Z,101367.78
2023-02-23T01:52:35.705Z,101366.97
2023-02-23T01:53:42.968Z,101368.72
2023-02-23T01:54:48.908Z,101368.22
2023-02-23T01:55:57.903Z,101365.47
2023-02-23T01:57:03.972Z,101368.84
2023-02-23T01:58:13.431Z,101369.97
2023-02-23T01:59:18.833Z,101368.84
2023-02-23T02:00:23.226Z,101375.00
2023-02-23T02:01:27.325Z,101375.16
2023-02-23T02:02:31.431Z,101375.66
2023-02-23T02:03:37.396Z,101371.88
2023-02-23T02:04:43.046Z,101370.25
2023-02-23T02:05:48.333Z,101370.63
2023-02-23T02:06:54.119Z,101369.28
2023-02-23T02:07:59.303Z,101378.19
2023-02-23T02:09:06.108Z,101368.66
2023-02-23T02:10:11.425Z,101368.44
2023-02-23T02:11:15.414Z,101375.25
2023-02-23T02:12:19.056Z,101371.47
2023-02-23T02:13:28.074Z,101371.53
2023-02-23T02:14:32.583Z,101365.19
2023-02-23T02:15:44.249Z,101365.63
2023-02-23T02:17:07.480Z,101364.66
2023-02-23T02:18:20.594Z,101332.59
2023-02-23T02:19:56.535Z,101367.78
2023-02-23T02:21:46.849Z,101370.06
2023-02-23T02:23:34.455Z,101369.25
2023-02-23T02:25:13.558Z,101369.75
2023-02-23T02:26:23.693Z,101370.59
2023-02-23T02:27:47.300Z,101366.25
2023-02-23T02:29:21.394Z,101370.78
2023-02-23T02:31:00.180Z,101364.56
2023-02-23T02:32:34.936Z,101369.25
2023-02-23T02:34:01.605Z,101366.50
2023-02-23T02:35:49.939Z,101370.88
2023-02-23T02:37:20.749Z,101366.13
2023-02-23T02:38:41.406Z,101361.56
2023-02-23T02:39:54.000Z,101358.91
2023-02-23T02:41:04.355Z,101364.59
2023-02-23T02:42:17.173Z,101370.91
2023-02-23T02:43:29.063Z,101374.47
2023-02-23T02:44:40.472Z,101364.59
2023-02-23T02:45:51.788Z,101362.41
2023-02-23T02:47:01.968Z,101358.53
2023-02-23T02:48:13.751Z,101371.44
2023-02-23T02:49:26.190Z,101358.81
2023-02-23T02:50:37.916Z,101349.56
2023-02-23T02:51:48.256Z,101362.03
2023-02-23T02:52:58.117Z,101357.31
2023-02-23T02:54:07.843Z,101361.06
2023-02-23T02:56:20.854Z,101333.91
2023-02-23T02:56:45.827Z,101365.56
2023-02-23T02:57:50.842Z,101360.84
2023-02-23T02:58:54.972Z,101363.28
2023-02-23T02:59:59.617Z,101364.09
2023-02-23T03:01:26.016Z,101370.09
2023-02-23T03:02:30.332Z,101352.56
2023-02-23T03:03:37.688Z,101360.78
2023-02-23T03:04:41.395Z,101352.78
2023-02-23T03:05:49.802Z,101354.25
2023-02-23T03:06:59.820Z,101350.34
2023-02-23T03:08:17.953Z,101353.91
2023-02-23T03:09:34.605Z,101354.38
2023-02-23T03:10:44.916Z,101354.50
2023-02-23T03:11:58.374Z,101348.97
2023-02-23T03:13:12.246Z,101355.19
2023-02-23T03:14:25.787Z,101354.03
2023-02-23T03:15:54.779Z,101345.06
2023-02-23T03:17:07.775Z,101356.13
2023-02-23T03:18:21.339Z,101350.94
2023-02-23T03:19:28.520Z,101351.41
2023-02-23T03:20:44.375Z,101350.41
2023-02-23T03:21:57.680Z,101355.13
2023-02-23T03:23:11.766Z,101355.19
2023-02-23T03:24:25.178Z,101350.19
2023-02-23T03:25:35.542Z,101354.25
2023-02-23T03:26:44.637Z,101343.47
2023-02-23T03:27:55.489Z,101304.63
2023-02-23T03:29:08.291Z,101340.75
2023-02-23T03:30:20.271Z,101342.94
2023-02-23T03:31:31.138Z,101330.28
2023-02-23T03:32:41.341Z,101307.22
2023-02-23T03:34:04.314Z,101337.25
2023-02-23T03:35:11.505Z,101334.28
2023-02-23T03:36:20.424Z,101334.41
2023-02-23T03:37:28.342Z,101325.31
2023-02-23T03:38:40.101Z,101329.81
2023-02-23T03:39:48.601Z,101340.97
2023-02-23T03:40:55.242Z,101329.47
2023-02-23T03:42:03.323Z,101335.22
2023-02-23T03:43:11.604Z,101334.31
2023-02-23T03:44:19.213Z,101335.69
2023-02-23T03:45:27.153Z,101326.72
2023-02-23T03:46:32.494Z,101328.34
2023-02-23T03:47:40.885Z,101331.53
2023-02-23T03:48:47.442Z,101326.63
2023-02-23T03:49:51.976Z,101327.88
2023-02-23T03:51:09.901Z,101333.19
2023-02-23T03:52:19.484Z,101322.81
2023-02-23T03:53:29.355Z,101319.72
2023-02-23T03:54:39.832Z,101315.91
2023-02-23T03:55:49.846Z,101317.31
2023-02-23T03:56:56.610Z,101310.97
2023-02-23T03:58:02.252Z,101307.06
2023-02-23T03:59:08.328Z,101312.72
2023-02-23T04:00:20.580Z,101310.50
2023-02-23T04:01:27.577Z,101310.09
2023-02-23T04:02:35.443Z,101314.22
2023-02-23T04:03:43.717Z,101310.44
2023-02-23T04:04:49.102Z,101309.50
2023-02-23T04:05:57.108Z,101307.75
2023-02-23T04:07:03.522Z,101307.53
2023-02-23T04:08:12.343Z,101312.25
2023-02-23T04:09:16.282Z,101302.13
2023-02-23T04:10:23.749Z,101306.81
2023-02-23T04:11:32.475Z,101299.97
2023-02-23T04:12:45.222Z,101303.56
2023-02-23T04:13:55.562Z,101294.72
2023-02-23T04:15:05.354Z,101261.75
2023-02-23T04:16:10.511Z,101292.22
2023-02-23T04:17:16.118Z,101292.66
2023-02-23T04:18:24.591Z,101291.28
2023-02-23T04:19:29.575Z,101296.56
2023-02-23T04:20:34.227Z,101290.69
2023-02-23T04:21:37.915Z,101287.59
2023-02-23T04:22:41.629Z,101266.84
2023-02-23T04:23:45.299Z,101280.78
2023-02-23T04:24:49.015Z,101284.69
2023-02-23T04:25:55.031Z,101274.66
2023-02-23T04:26:58.664Z,101274.56
2023-02-23T04:28:02.355Z,101272.16
2023-02-23T04:29:05.984Z,101277.00
2023-02-23T04:30:10.777Z,101274.69
2023-02-23T04:31:14.337Z,101277.47
2023-02-23T04:32:20.095Z,101274.09
2023-02-23T04:33:24.431Z,101269.50
2023-02-23T04:34:28.064Z,101272.44
2023-02-23T04:35:31.718Z,101265.97
2023-02-23T04:36:35.388Z,101260.88
2023-02-23T04:37:39.132Z,101265.28
2023-02-23T04:38:42.843Z,101263.31
2023-02-23T04:39:46.443Z,101259.53
2023-02-23T04:40:50.173Z,101247.06
2023-02-23T04:41:55.471Z,101237.69
2023-02-23T04:42:59.292Z,101255.94
2023-02-23T04:44:02.954Z,101254.44
2023-02-23T04:45:07.509Z,101244.88
2023-02-23T04:46:11.209Z,101249.34
2023-02-23T04:47:16.941Z,101249.94
2023-02-23T04:48:20.620Z,101245.31
2023-02-23T04:49:24.900Z,101243.34
2023-02-23T04:50:28.516Z,101235.44
2023-02-23T04:51:32.190Z,101234.63
2023-02-23T04:52:35.838Z,101227.47
2023-02-23T04:53:40.072Z,101237.41
2023-02-23T04:54:43.822Z,101231.06
2023-02-23T04:55:47.505Z,101227.25
2023-02-23T04:56:51.086Z,101223.78
2023-02-23T04:57:59.030Z,101224.84
2023-02-23T04:59:02.784Z,101216.53
2023-02-23T05:00:07.832Z,101215.97
2023-02-23T05:01:11.574Z,101222.44
2023-02-23T05:02:15.267Z,101214.13
2023-02-23T05:03:18.882Z,101214.00
2023-02-23T05:04:22.473Z,101215.28
2023-02-23T05:05:26.253Z,101217.22
2023-02-23T05:06:29.862Z,101211.09
2023-02-23T05:07:33.505Z,101212.84
2023-02-23T05:08:37.152Z,101199.81
2023-02-23T05:09:41.337Z,101202.34
2023-02-23T05:10:46.776Z,101197.00
2023-02-23T05:11:50.493Z,101199.78
2023-02-23T05:12:55.759Z,101183.91
2023-02-23T05:13:59.600Z,101196.59
2023-02-23T05:15:03.381Z,101201.31
2023-02-23T05:16:08.188Z,101205.22
2023-02-23T05:17:11.804Z,101198.88
2023-02-23T05:18:15.444Z,101195.91
2023-02-23T05:19:19.131Z,101195.91
2023-02-23T05:20:23.400Z,101198.75
2023-02-23T05:21:27.081Z,101187.56
2023-02-23T05:22:30.751Z,101181.94
2023-02-23T05:23:34.816Z,101171.41
2023-02-23T05:24:38.467Z,101176.28
2023-02-23T05:25:42.363Z,101180.00
2023-02-23T05:26:46.074Z,101167.09
2023-02-23T05:27:49.665Z,101169.63
2023-02-23T05:28:54.978Z,101161.78
2023-02-23T05:29:58.588Z,101169.59
2023-02-23T05:31:02.544Z,101164.34
2023-02-23T05:32:06.801Z,101162.47
2023-02-23T05:33:10.529Z,101160.34
2023-02-23T05:34:14.393Z,101159.91
2023-02-23T05:35:18.293Z,101164.88
2023-02-23T05:36:22.757Z,101167.00
2023-02-23T05:37:26.397Z,101156.25
2023-02-23T05:38:30.011Z,101161.63
2023-02-23T05:39:33.863Z,101156.81
2023-02-23T05:40:38.065Z,101148.47
2023-02-23T05:41:41.772Z,101146.19
2023-02-23T05:42:45.371Z,101135.38
2023-02-23T05:43:49.373Z,101141.13
2023-02-23T05:44:54.616Z,101132.22
2023-02-23T05:45:58.285Z,101133.16
2023-02-23T05:47:02.191Z,101133.22
2023-02-23T05:48:06.078Z,101135.00
2023-02-23T05:49:12.594Z,101120.63
2023-02-23T05:50:16.380Z,101130.25
2023-02-23T05:51:20.356Z,101125.66
2023-02-23T05:52:24.326Z,101122.31
2023-02-23T05:53:28.030Z,101113.94
2023-02-23T05:54:31.714Z,101112.84
2023-02-23T05:55:36.527Z,101107.09
2023-02-23T05:56:40.339Z,101105.13
2023-02-23T05:57:44.230Z,101114.75
2023-02-23T05:58:47.991Z,101107.44
2023-02-23T05:59:53.280Z,101107.44
2023-02-23T06:00:56.953Z,101091.00
2023-02-23T06:02:00.604Z,101101.69
2023-02-23T06:03:04.376Z,101093.59
2023-02-23T06:04:08.016Z,101087.50
2023-02-23T06:05:12.450Z,101090.22
2023-02-23T06:06:16.690Z,101089.53
2023-02-23T06:07:20.245Z,101084.03
2023-02-23T06:08:24.343Z,101075.84
2023-02-23T06:09:28.238Z,101078.34
2023-02-23T06:10:31.867Z,101083.97
2023-02-23T06:11:35.456Z,101080.94
2023-02-23T06:12:39.081Z,101073.78
2023-02-23T06:13:42.795Z,101073.25
2023-02-23T06:14:46.426Z,101073.63
2023-02-23T06:15:51.653Z,101074.19
2023-02-23T06:16:55.563Z,101058.50
2023-02-23T06:17:59.361Z,101065.50
2023-02-23T06:19:03.121Z,101064.16
2023-02-23T06:20:10.078Z,101062.44
2023-02-23T06:21:13.807Z,101058.97
2023-02-23T06:22:17.639Z,101057.56
2023-02-23T06:23:21.237Z,101057.19
2023-02-23T06:24:24.890Z,101051.13
2023-02-23T06:25:28.661Z,101055.22
2023-02-23T06:26:32.315Z,101053.03
2023-02-23T06:27:36.042Z,101048.19
2023-02-23T06:28:39.625Z,101048.72
2023-02-23T06:29:43.222Z,101045.69
2023-02-23T06:30:46.973Z,101044.72
2023-02-23T06:31:52.308Z,101041.59
2023-02-23T06:32:56.147Z,101026.75
2023-02-23T06:33:59.770Z,101042.13
2023-02-23T06:35:03.410Z,101040.16
2023-02-23T06:36:07.551Z,101034.09
2023-02-23T06:37:11.118Z,101035.44
2023-02-23T06:38:15.032Z,101034.00
2023-02-23T06:39:18.608Z,101027.78
2023-02-23T06:40:22.502Z,101025.47
2023-02-23T06:41:26.750Z,101027.13
2023-02-23T06:42:30.428Z,101013.59
2023-02-23T06:43:34.142Z,101018.03
2023-02-23T06:44:37.731Z,101016.53
2023-02-23T06:45:41.312Z,101014.47
2023-02-23T06:46:45.189Z,101013.25
2023-02-23T06:47:50.496Z,101005.81
2023-02-23T06:48:56.654Z,100975.00
2023-02-23T06:50:00.354Z,101007.56
2023-02-23T06:51:04.234Z,101005.25
2023-02-23T06:52:07.835Z,101001.59
2023-02-23T06:53:11.431Z,100994.81
2023-02-23T06:54:15.137Z,101003.47
2023-02-23T06:55:18.957Z,101003.47
2023-02-23T06:56:22.755Z,100998.47
2023-02-23T06:57:26.625Z,100993.03
2023-02-23T06:58:30.547Z,100986.41
2023-02-23T06:59:34.595Z,100986.41
2023-02-23T07:00:38.226Z,100987.66
2023-02-23T07:01:41.792Z,100984.16
2023-02-23T07:02:45.365Z,100979.44
2023-02-23T07:03:50.639Z,100979.06
2023-02-23T07:04:54.439Z,100981.84
2023-02-23T07:05:58.111Z,100966.59
2023-02-23T07:07:01.775Z,100973.97
2023-02-23T07:08:05.776Z,100976.47
2023-02-23T07:09:09.376Z,100977.09
2023-02-23T07:10:13.694Z,100967.72
2023-02-23T07:11:18.142Z,100962.44
2023-02-23T07:12:21.931Z,100969.13
2023-02-23T07:13:25.536Z,100963.97
2023-02-23T07:14:32.365Z,100960.81
2023-02-23T07:15:37.086Z,100959.13
2023-02-23T07:16:41.089Z,100961.63
2023-02-23T07:17:44.782Z,100953.59
2023-02-23T07:18:50.155Z,100946.34
2023-02-23T07:19:53.743Z,100951.34
2023-02-23T07:20:57.406Z,100946.34
2023-02-23T07:22:01.055Z,100912.88
2023-02-23T07:23:04.716Z,100947.06
2023-02-23T07:24:08.801Z,100943.03
2023-02-23T07:25:12.498Z,100936.88
2023-02-23T07:26:16.133Z,100934.59
2023-02-23T07:27:19.960Z,100932.19
2023-02-23T07:28:23.649Z,100920.38
2023-02-23T07:29:27.391Z,100917.25
2023-02-23T07:30:31.088Z,100921.25
2023-02-23T07:31:34.802Z,100917.25
2023-02-23T07:32:38.517Z,100910.16
2023-02-23T07:33:42.217Z,100919.00
2023-02-23T07:34:47.882Z,100914.25
2023-02-23T07:35:51.658Z,100906.75
2023-02-23T07:36:55.256Z,100903.66
2023-02-23T07:37:58.837Z,100902.16
2023-02-23T07:39:02.534Z,100897.78
2023-02-23T07:40:06.981Z,100897.03
2023-02-23T07:41:10.531Z,100893.03
2023-02-23T07:42:14.231Z,100896.09
2023-02-23T07:43:17.859Z,100900.31
2023-02-23T07:44:21.532Z,100895.13
2023-02-23T07:45:25.239Z,100899.38
2023-02-23T07:46:28.928Z,100899.81
2023-02-23T07:47:32.578Z,100889.59
2023-02-23T07:48:36.283Z,100888.53
2023-02-23T07:49:39.873Z,100892.09
2023-02-23T07:50:45.350Z,100888.53
2023-02-23T07:51:49.082Z,100896.47
2023-02-23T07:52:52.835Z,100893.25
2023-02-23T07:53:56.510Z,100886.09
2023-02-23T07:55:00.215Z,100880.13
2023-02-23T07:56:03.921Z,100888.44
2023-02-23T07:57:07.563Z,100885.53
2023-02-23T07:58:11.440Z,100878.81
2023-02-23T07:59:15.183Z,100882.28
2023-02-23T08:00:19.921Z,100881.72
2023-02-23T08:01:23.617Z,100874.72
2023-02-23T08:02:27.372Z,100875.34
2023-02-23T08:03:31.301Z,100874.66
2023-02-23T08:04:34.989Z,100873.19
2023-02-23T08:05:38.640Z,100867.75
2023-02-23T08:06:43.970Z,100868.03
2023-02-23T08:07:47.804Z,100867.59
2023-02-23T08:08:51.404Z,100875.13
2023-02-23T08:09:55.087Z,100873.16
2023-02-23T08:11:01.505Z,100868.78
2023-02-23T08:12:05.854Z,100865.47
2023-02-23T08:13:09.492Z,100865.81
2023-02-23T08:14:13.251Z,100865.22
2023-02-23T08:15:16.898Z,100863.81
2023-02-23T08:16:20.598Z,100861.56
2023-02-23T08:17:24.485Z,100862.06
2023-02-23T08:18:28.248Z,100863.69
2023-02-23T08:19:31.873Z,100858.94
2023-02-23T08:20:35.553Z,100859.16
2023-02-23T08:21:39.132Z,100861.22
2023-02-23T08:22:49.745Z,100858.72
2023-02-23T08:23:53.924Z,100854.88
2023-02-23T08:24:57.759Z,100854.13
2023-02-23T08:26:02.060Z,100848.16
2023-02-23T08:27:06.071Z,100845.31
2023-02-23T08:28:09.953Z,100847.63
2023-02-23T08:29:13.649Z,100842.81
2023-02-23T08:30:17.634Z,100846.31
2023-02-23T08:31:22.004Z,100847.56
2023-02-23T08:32:26.127Z,100843.66
2023-02-23T08:33:30.256Z,100845.16
2023-02-23T08:34:37.621Z,100845.59
2023-02-23T08:35:41.312Z,100836.06
2023-02-23T08:36:45.896Z,100838.81
2023-02-23T08:37:51.734Z,100836.00
2023-02-23T08:38:55.517Z,100837.50
2023-02-23T08:39:59.153Z,100839.47
2023-02-23T08:41:03.003Z,100839.47
2023-02-23T08:42:07.829Z,100836.34
2023-02-23T08:43:11.479Z,100834.38
2023-02-23T08:44:15.166Z,100831.97
2023-02-23T08:45:19.386Z,100833.59
2023-02-23T08:46:23.115Z,100792.59
2023-02-23T08:47:26.874Z,100835.69
2023-02-23T08:48:30.575Z,100830.69
2023-02-23T08:49:34.282Z,100835.53
2023-02-23T08:50:38.033Z,100826.94
2023-02-23T08:51:41.634Z,100832.13
2023-02-23T08:52:45.452Z,100833.44
2023-02-23T08:53:50.974Z,100836.19
2023-02-23T08:54:54.578Z,100834.75
2023-02-23T08:55:59.566Z,100830.81
2023-02-23T08:57:03.194Z,100831.34
2023-02-23T08:58:08.408Z,100823.53
2023-02-23T08:59:13.394Z,100822.72
2023-02-23T09:00:17.949Z,100825.28
2023-02-23T09:01:22.727Z,100829.66
2023-02-23T09:02:26.691Z,100823.31
2023-02-23T09:03:31.174Z,100826.97
2023-02-23T09:04:35.602Z,100834.03
2023-02-23T09:05:39.339Z,100835.75
2023-02-23T09:06:43.077Z,100833.03
2023-02-23T09:07:48.624Z,100840.50
2023-02-23T09:08:54.623Z,100826.66
2023-02-23T09:09:58.809Z,100823.63
2023-02-23T09:11:02.421Z,100827.81
2023-02-23T09:12:06.415Z,100822.94
2023-02-23T09:13:10.009Z,100830.34
2023-02-23T09:14:13.702Z,100837.78
2023-02-23T09:15:17.358Z,100829.00
2023-02-23T09:16:21.063Z,100829.47
2023-02-23T09:17:24.800Z,100827.13
2023-02-23T09:18:28.409Z,100838.66
2023-02-23T09:19:32.315Z,100838.28
2023-02-23T09:20:35.995Z,100832.75
2023-02-23T09:21:39.958Z,100833.47
2023-02-23T09:22:44.244Z,100830.69
2023-02-23T09:23:48.616Z,100835.53
2023-02-23T09:24:54.260Z,100834.72
2023-02-23T09:25:57.851Z,100788.69
2023-02-23T09:27:01.473Z,100833.78
2023-02-23T09:28:05.141Z,100825.63
2023-02-23T09:29:09.044Z,100833.22
2023-02-23T09:30:13.979Z,100830.00
2023-02-23T09:31:19.819Z,100837.91
2023-02-23T09:32:23.732Z,100831.47
2023-02-23T09:33:27.361Z,100836.13
2023-02-23T09:34:31.104Z,100832.50
2023-02-23T09:35:35.407Z,100830.81
2023-02-23T09:36:39.045Z,100835.91
2023-02-23T09:37:42.720Z,100837.88
2023-02-23T09:38:47.082Z,100835.84
2023-02-23T09:39:50.761Z,100839.88
2023-02-23T09:40:56.295Z,100815.66
2023-02-23T09:42:20.390Z,100836.47
2023-02-23T09:43:30.531Z,100837.72
2023-02-23T09:44:50.846Z,100838.81
2023-02-23T09:46:03.740Z,100838.38
2023-02-23T09:47:21.660Z,100840.88
2023-02-23T09:48:28.916Z,100847.22
2023-02-23T09:49:37.840Z,100844.81
2023-02-23T09:50:46.141Z,100846.41
2023-02-23T09:51:52.338Z,100843.66
2023-02-23T09:53:00.572Z,100845.16
2023-02-23T09:54:06.269Z,100850.63
2023-02-23T09:55:13.537Z,100848.13
2023-02-23T09:56:26.012Z,100848.84
2023-02-23T09:57:38.293Z,100850.19
2023-02-23T09:58:42.715Z,100853.69
2023-02-23T09:59:46.628Z,100852.81
2023-02-23T10:01:03.642Z,100860.56
2023-02-23T10:02:18.698Z,100856.66
2023-02-23T10:03:29.411Z,100857.47
2023-02-23T10:04:38.049Z,100864.16
2023-02-23T10:05:46.562Z,100869.22
2023-02-23T10:06:58.777Z,100869.44
2023-02-23T10:08:07.037Z,100867.84
2023-02-23T10:09:19.236Z,100875.38
2023-02-23T10:10:29.446Z,100866.97
2023-02-23T10:11:44.029Z,100875.72
2023-02-23T10:12:54.983Z,100873.22
2023-02-23T10:14:08.646Z,100874.28
2023-02-23T10:15:19.905Z,100877.41
2023-02-23T10:16:30.042Z,100879.28
2023-02-23T10:17:43.290Z,100867.75
2023-02-23T10:18:53.295Z,100881.38
2023-02-23T10:20:02.332Z,100883.44
2023-02-23T10:21:08.991Z,100849.22
2023-02-23T10:22:14.646Z,100846.81
2023-02-23T10:23:24.790Z,100872.72
2023-02-23T10:24:31.644Z,100890.56
2023-02-23T10:25:39.469Z,100889.75
2023-02-23T10:26:49.753Z,100877.00
2023-02-23T10:27:54.997Z,100883.66
2023-02-23T10:29:00.131Z,100886.31
2023-02-23T10:30:04.662Z,100885.91
2023-02-23T10:31:28.899Z,100890.97
2023-02-23T10:32:42.780Z,100896.38
2023-02-23T10:33:47.700Z,100894.78
2023-02-23T10:34:55.371Z,100897.88
2023-02-23T10:36:13.298Z,100892.19
2023-02-23T10:37:18.329Z,100890.69
2023-02-23T10:38:21.962Z,100887.34
2023-02-23T10:39:26.582Z,100885.75
2023-02-23T10:40:33.874Z,100899.66
2023-02-23T10:41:38.854Z,100896.44
2023-02-23T10:42:44.378Z,100887.25
2023-02-23T10:43:49.094Z,100881.16
2023-02-23T10:44:52.878Z,100898.41
2023-02-23T10:45:57.070Z,100893.59
2023-02-23T10:47:03.656Z,100896.34
2023-02-23T10:48:09.728Z,100890.03
2023-02-23T10:49:19.282Z,100850.59
2023-02-23T10:50:23.431Z,100879.38
2023-02-23T10:51:31.614Z,100893.84
2023-02-23T10:52:42.159Z,100893.84
2023-02-23T10:53:45.877Z,100896.59
2023-02-23T10:54:50.981Z,100882.78
2023-02-23T10:56:04.857Z,100899.28
2023-02-23T10:57:10.577Z,100900.09
2023-02-23T10:58:17.987Z,100898.81
2023-02-23T10:59:21.960Z,100897.19
2023-02-23T11:00:29.432Z,100897.06
2023-02-23T11:01:40.121Z,100880.91
2023-02-23T11:02:46.537Z,100893.63
2023-02-23T11:03:57.713Z,100896.50
2023-02-23T11:05:26.181Z,100892.84
2023-02-23T11:06:32.860Z,100900.44
2023-02-23T11:07:36.652Z,100900.78
2023-02-23T11:08:40.473Z,100901.13
2023-02-23T11:09:47.463Z,100902.66
2023-02-23T11:11:03.157Z,100899.41
2023-02-23T11:12:18.091Z,100896.88
2023-02-23T11:13:27.522Z,100875.75
2023-02-23T11:14:32.907Z,100909.81
2023-02-23T11:15:50.288Z,100912.56
2023-02-23T11:16:56.175Z,100917.63
2023-02-23T11:18:01.493Z,100883.97
2023-02-23T11:19:08.052Z,100912.78
2023-02-23T11:20:31.314Z,100911.63
2023-02-23T11:21:36.608Z,100913.13
2023-02-23T11:22:43.209Z,100909.13
2023-02-23T11:23:46.952Z,100914.66
2023-02-23T11:24:50.999Z,100921.31
2023-02-23T11:25:56.031Z,100924.44
2023-02-23T11:27:01.804Z,100920.06
2023-02-23T11:28:05.967Z,100919.25
2023-02-23T11:29:20.487Z,100904.75
2023-02-23T11:30:25.889Z,100913.13
2023-02-23T11:31:34.770Z,100920.41
2023-02-23T11:32:42.956Z,100923.03
2023-02-23T11:33:47.725Z,100925.47
2023-02-23T11:35:25.855Z,100931.78
2023-02-23T11:36:31.313Z,100930.88
2023-02-23T11:37:34.934Z,100928.94
2023-02-23T11:38:38.691Z,100934.00
2023-02-23T11:39:52.715Z,100930.72
2023-02-23T11:41:04.208Z,100934.19
2023-02-23T11:42:18.839Z,100934.88
2023-02-23T11:43:23.144Z,100930.19
2023-02-23T11:44:28.411Z,100933.63
2023-02-23T11:45:35.021Z,100929.38
2023-02-23T11:46:39.514Z,100923.72
2023-02-23T11:47:49.386Z,100926.16
2023-02-23T11:48:57.587Z,100923.25
2023-02-23T11:50:02.349Z,100922.91
2023-02-23T11:51:06.425Z,100927.97
2023-02-23T11:52:16.468Z,100927.88
2023-02-23T11:53:29.506Z,100931.44
2023-02-23T11:54:35.646Z,100931.78
2023-02-23T11:55:40.313Z,100932.59
2023-02-23T11:56:50.110Z,100937.53
2023-02-23T11:57:54.304Z,100921.09
2023-02-23T11:59:02.526Z,100941.81
2023-02-23T12:00:15.022Z,100931.44
2023-02-23T12:01:21.496Z,100942.13
2023-02-23T12:02:26.472Z,100947.66
2023-02-23T12:03:34.660Z,100935.81
2023-02-23T12:04:41.073Z,100936.97
2023-02-23T12:05:52.140Z,100938.31
2023-02-23T12:07:17.809Z,100954.66
2023-02-23T12:08:32.602Z,100946.25
2023-02-23T12:09:36.580Z,100947.19
2023-02-23T12:10:42.741Z,100951.91
2023-02-23T12:11:51.746Z,100944.78
2023-02-23T12:13:04.558Z,100949.00
2023-02-23T12:14:16.611Z,100949.00
2023-02-23T12:15:28.622Z,100944.63
2023-02-23T12:16:37.812Z,100931.66
2023-02-23T12:17:48.896Z,100936.81
2023-02-23T12:18:57.997Z,100955.69
2023-02-23T12:20:04.989Z,100951.66
2023-02-23T12:21:20.898Z,100967.88
2023-02-23T12:22:27.202Z,100959.59
2023-02-23T12:23:34.196Z,100959.25
2023-02-23T12:24:44.864Z,100898.59
2023-02-23T12:25:53.220Z,100954.16
2023-02-23T12:27:01.189Z,100968.22
2023-02-23T12:28:18.779Z,100957.88
2023-02-23T12:29:32.644Z,100959.00
2023-02-23T12:30:44.377Z,100968.44
2023-02-23T12:31:53.646Z,100934.72
2023-02-23T12:33:00.286Z,100970.03
2023-02-23T12:34:12.847Z,100966.81
2023-02-23T12:35:22.598Z,100967.97
2023-02-23T12:36:31.866Z,100975.09
2023-02-23T12:37:41.362Z,100973.47
2023-02-23T12:38:52.789Z,100975.44
2023-02-23T12:40:04.808Z,100952.53
2023-02-23T12:41:14.120Z,100970.94
2023-02-23T12:42:25.714Z,100972.56